createdAt,value
2018-10-16T00:00:50.567Z,16.94
2018-10-16T00:01:50.539Z,16.94
2018-10-16T00:02:50.702Z,16.94
2018-10-16T00:03:50.567Z,16.97
2018-10-16T00:04:50.571Z,16.83
2018-10-16T00:05:50.589Z,16.82
2018-10-16T00:06:50.591Z,16.91
2018-10-16T00:07:50.637Z,16.92
2018-10-16T00:08:50.593Z,16.89
2018-10-16T00:09:50.636Z,16.84
2018-10-16T00:10:50.614Z,16.92
2018-10-16T00:11:50.650Z,16.80
2018-10-16T00:12:50.650Z,16.83
2018-10-16T00:13:50.661Z,16.87
2018-10-16T00:14:50.696Z,16.84
2018-10-16T00:15:50.682Z,16.86
2018-10-16T00:16:50.708Z,16.89
2018-10-16T00:17:50.689Z,16.72
2018-10-16T00:18:50.827Z,16.86
2018-10-16T00:19:50.691Z,16.84
2018-10-16T00:20:50.733Z,16.86
2018-10-16T00:21:50.705Z,16.76
2018-10-16T00:22:50.768Z,16.87
2018-10-16T00:23:50.779Z,16.69
2018-10-16T00:24:50.761Z,16.73
2018-10-16T00:25:50.755Z,16.79
2018-10-16T00:26:50.814Z,16.77
2018-10-16T00:27:50.809Z,16.80
2018-10-16T00:28:50.807Z,16.73
2018-10-16T00:29:50.799Z,16.82
2018-10-16T00:30:50.827Z,16.80
2018-10-16T00:31:50.793Z,16.66
2018-10-16T00:32:50.840Z,16.72
2018-10-16T00:33:50.826Z,16.69
2018-10-16T00:34:50.852Z,16.64
2018-10-16T00:35:50.823Z,16.74
2018-10-16T00:36:50.852Z,16.65
2018-10-16T00:37:50.890Z,16.72
2018-10-16T00:38:50.866Z,16.55
2018-10-16T00:39:50.869Z,16.61
2018-10-16T00:40:50.900Z,16.51
2018-10-16T00:41:50.905Z,16.51
2018-10-16T00:42:50.903Z,16.64
2018-10-16T00:43:50.920Z,16.59
2018-10-16T00:44:50.939Z,16.50
2018-10-16T00:45:50.951Z,16.55
2018-10-16T00:46:50.930Z,16.61
2018-10-16T00:47:50.937Z,16.54
2018-10-16T00:48:50.939Z,16.49
2018-10-16T00:49:50.975Z,16.58
2018-10-16T00:50:50.962Z,16.57
2018-10-16T00:51:50.986Z,16.49
2018-10-16T00:52:51.027Z,16.59
2018-10-16T00:53:50.975Z,16.50
2018-10-16T00:54:51.064Z,16.57
2018-10-16T00:55:50.996Z,16.51
2018-10-16T00:56:51.001Z,16.49
2018-10-16T00:57:51.071Z,16.51
2018-10-16T00:58:51.045Z,16.54
2018-10-16T00:59:51.045Z,16.54
2018-10-16T01:00:51.046Z,16.55
2018-10-16T01:01:51.041Z,16.44
2018-10-16T01:02:51.062Z,16.47
2018-10-16T01:03:51.054Z,16.57
2018-10-16T01:04:51.072Z,16.57
2018-10-16T01:05:51.078Z,16.46
2018-10-16T01:06:51.088Z,16.47
2018-10-16T01:07:51.131Z,16.46
2018-10-16T01:08:51.148Z,16.46
2018-10-16T01:09:51.131Z,16.50
2018-10-16T01:10:51.216Z,16.46
2018-10-16T01:11:51.125Z,16.47
2018-10-16T01:12:51.132Z,16.43
2018-10-16T01:13:51.180Z,16.49
2018-10-16T01:14:51.143Z,16.46
2018-10-16T01:15:51.152Z,16.41
2018-10-16T01:16:51.190Z,16.41
2018-10-16T01:17:51.180Z,16.40
2018-10-16T01:18:51.219Z,16.44
2018-10-16T01:19:51.185Z,16.40
2018-10-16T01:20:51.186Z,16.43
2018-10-16T01:21:51.194Z,16.46
2018-10-16T01:22:51.237Z,16.41
2018-10-16T01:23:51.294Z,16.44
2018-10-16T01:24:51.263Z,16.39
2018-10-16T01:25:51.267Z,16.43
2018-10-16T01:26:51.245Z,16.36
2018-10-16T01:27:51.824Z,16.43
2018-10-16T01:28:51.280Z,16.34
2018-10-16T01:29:51.336Z,16.37
2018-10-16T01:30:51.291Z,16.32
2018-10-16T01:31:51.311Z,16.40
2018-10-16T01:32:51.306Z,16.47
2018-10-16T01:33:51.313Z,16.36
2018-10-16T01:34:51.458Z,16.46
2018-10-16T01:35:51.332Z,16.29
2018-10-16T01:36:51.329Z,16.36
2018-10-16T01:37:51.341Z,16.34
2018-10-16T01:38:51.380Z,16.26
2018-10-16T01:39:51.364Z,16.26
2018-10-16T01:40:51.535Z,16.29
2018-10-16T01:41:51.377Z,16.26
2018-10-16T01:42:51.412Z,16.26
2018-10-16T01:43:51.584Z,16.36
2018-10-16T01:44:51.385Z,16.31
2018-10-16T01:45:51.425Z,16.36
2018-10-16T01:46:51.408Z,16.31
2018-10-16T01:47:51.442Z,16.37
2018-10-16T01:48:51.498Z,16.31
2018-10-16T01:49:51.428Z,16.26
2018-10-16T01:50:51.440Z,16.26
2018-10-16T01:51:51.497Z,16.31
2018-10-16T01:52:51.491Z,16.28
2018-10-16T01:53:51.485Z,16.26
2018-10-16T01:54:51.459Z,16.25
2018-10-16T01:55:51.491Z,16.28
2018-10-16T01:56:51.549Z,16.29
2018-10-16T01:57:51.508Z,16.26
2018-10-16T01:58:51.507Z,16.25
2018-10-16T01:59:51.522Z,16.31
2018-10-16T02:00:51.523Z,16.28
2018-10-16T02:01:51.552Z,16.31
2018-10-16T02:02:51.539Z,16.29
2018-10-16T02:03:51.671Z,16.25
2018-10-16T02:04:51.573Z,16.25
2018-10-16T02:05:51.562Z,16.18
2018-10-16T02:06:51.595Z,16.25
2018-10-16T02:07:51.607Z,16.26
2018-10-16T02:08:51.592Z,16.21
2018-10-16T02:09:51.590Z,16.22
2018-10-16T02:10:51.609Z,16.24
2018-10-16T02:11:51.625Z,16.18
2018-10-16T02:12:51.613Z,16.21
2018-10-16T02:13:51.649Z,16.18
2018-10-16T02:14:51.689Z,16.17
2018-10-16T02:15:51.645Z,16.17
2018-10-16T02:16:51.650Z,16.13
2018-10-16T02:17:51.667Z,16.18
2018-10-16T02:18:51.682Z,16.16
2018-10-16T02:19:51.679Z,16.18
2018-10-16T02:20:51.680Z,16.18
2018-10-16T02:21:51.711Z,16.08
2018-10-16T02:22:51.694Z,16.10
2018-10-16T02:23:51.752Z,16.13
2018-10-16T02:24:51.752Z,16.06
2018-10-16T02:25:51.786Z,16.09
2018-10-16T02:26:51.721Z,16.12
2018-10-16T02:27:51.728Z,16.09
2018-10-16T02:28:51.789Z,16.08
2018-10-16T02:29:51.747Z,16.06
2018-10-16T02:30:51.755Z,16.09
2018-10-16T02:31:51.773Z,16.10
2018-10-16T02:32:51.777Z,16.10
2018-10-16T02:33:51.827Z,16.09
2018-10-16T02:34:51.787Z,16.06
2018-10-16T02:35:51.805Z,16.09
2018-10-16T02:36:51.801Z,16.06
2018-10-16T02:37:51.808Z,16.08
2018-10-16T02:38:51.859Z,16.09
2018-10-16T02:39:51.847Z,16.06
2018-10-16T02:40:51.826Z,16.02
2018-10-16T02:41:51.872Z,16.03
2018-10-16T02:42:51.882Z,16.00
2018-10-16T02:43:51.870Z,16.00
2018-10-16T02:44:51.875Z,15.99
2018-10-16T02:45:51.898Z,15.98
2018-10-16T02:46:51.936Z,16.02
2018-10-16T02:47:51.890Z,16.02
2018-10-16T02:48:51.901Z,15.99
2018-10-16T02:49:51.924Z,16.02
2018-10-16T02:50:51.936Z,15.98
2018-10-16T02:51:51.945Z,15.99
2018-10-16T02:52:52.008Z,15.96
2018-10-16T02:53:51.957Z,15.94
2018-10-16T02:54:51.951Z,16.00
2018-10-16T02:55:51.969Z,15.94
2018-10-16T02:56:51.977Z,15.91
2018-10-16T02:57:52.017Z,15.94
2018-10-16T02:58:52.008Z,16.00
2018-10-16T02:59:51.996Z,15.96
2018-10-16T03:00:52.010Z,15.96
2018-10-16T03:01:52.010Z,15.91
2018-10-16T03:02:52.023Z,15.94
2018-10-16T03:03:52.044Z,15.94
2018-10-16T03:04:52.025Z,15.94
2018-10-16T03:05:52.080Z,15.94
2018-10-16T03:06:52.082Z,15.91
2018-10-16T03:07:52.052Z,15.96
2018-10-16T03:08:52.074Z,15.90
2018-10-16T03:09:52.060Z,15.92
2018-10-16T03:10:52.095Z,15.94
2018-10-16T03:11:52.203Z,15.96
2018-10-16T03:12:52.118Z,15.94
2018-10-16T03:13:52.107Z,15.96
2018-10-16T03:14:52.149Z,15.90
2018-10-16T03:15:52.136Z,15.90
2018-10-16T03:16:52.158Z,15.87
2018-10-16T03:17:52.216Z,15.94
2018-10-16T03:18:52.140Z,15.98
2018-10-16T03:19:52.174Z,15.87
2018-10-16T03:20:52.190Z,15.87
2018-10-16T03:21:52.190Z,15.85
2018-10-16T03:22:52.172Z,15.78
2018-10-16T03:23:52.173Z,15.88
2018-10-16T03:24:52.184Z,15.85
2018-10-16T03:25:52.261Z,15.84
2018-10-16T03:26:52.270Z,15.83
2018-10-16T03:27:52.244Z,15.83
2018-10-16T03:28:52.234Z,15.84
2018-10-16T03:29:52.242Z,15.84
2018-10-16T03:30:52.247Z,15.83
2018-10-16T03:31:52.250Z,15.84
2018-10-16T03:32:52.283Z,15.76
2018-10-16T03:33:52.289Z,15.70
2018-10-16T03:34:52.275Z,15.69
2018-10-16T03:35:52.284Z,15.76
2018-10-16T03:36:52.288Z,15.83
2018-10-16T03:37:52.309Z,15.83
2018-10-16T03:38:52.310Z,15.83
2018-10-16T03:39:52.312Z,15.73
2018-10-16T03:40:52.368Z,15.75
2018-10-16T03:41:52.325Z,15.78
2018-10-16T03:42:52.335Z,15.73
2018-10-16T03:43:52.382Z,15.78
2018-10-16T03:44:52.366Z,15.78
2018-10-16T03:45:52.360Z,15.81
2018-10-16T03:46:52.353Z,15.80
2018-10-16T03:47:52.385Z,15.76
2018-10-16T03:48:52.377Z,15.78
2018-10-16T03:49:52.410Z,15.83
2018-10-16T03:50:52.384Z,15.80
2018-10-16T03:51:52.398Z,15.78
2018-10-16T03:52:52.399Z,15.88
2018-10-16T03:53:52.417Z,15.72
2018-10-16T03:54:52.454Z,15.83
2018-10-16T03:55:52.457Z,15.73
2018-10-16T03:56:52.504Z,15.81
2018-10-16T03:57:52.444Z,15.75
2018-10-16T03:58:52.455Z,15.80
2018-10-16T03:59:52.451Z,15.78
2018-10-16T04:00:52.515Z,15.78
2018-10-16T04:01:52.474Z,15.76
2018-10-16T04:02:52.486Z,15.78
2018-10-16T04:03:52.508Z,15.76
2018-10-16T04:04:52.495Z,15.73
2018-10-16T04:05:52.524Z,15.81
2018-10-16T04:06:52.550Z,15.76
2018-10-16T04:07:52.519Z,15.76
2018-10-16T04:08:52.511Z,15.75
2018-10-16T04:09:52.509Z,15.72
2018-10-16T04:10:52.520Z,15.66
2018-10-16T04:11:52.523Z,15.67
2018-10-16T04:12:52.596Z,15.70
2018-10-16T04:13:52.603Z,15.65
2018-10-16T04:14:52.565Z,15.48
2018-10-16T04:15:52.535Z,15.52
2018-10-16T04:16:52.589Z,15.45
2018-10-16T04:17:52.581Z,15.45
2018-10-16T04:18:52.824Z,15.50
2018-10-16T04:19:52.573Z,15.50
2018-10-16T04:20:52.665Z,15.47
2018-10-16T04:21:52.585Z,15.44
2018-10-16T04:22:52.628Z,15.50
2018-10-16T04:23:52.667Z,15.50
2018-10-16T04:24:52.626Z,15.43
2018-10-16T04:25:52.627Z,15.41
2018-10-16T04:26:52.633Z,15.44
2018-10-16T04:27:52.655Z,15.41
2018-10-16T04:28:52.678Z,15.45
2018-10-16T04:29:52.658Z,15.39
2018-10-16T04:30:52.695Z,15.41
2018-10-16T04:31:52.670Z,15.37
2018-10-16T04:32:52.685Z,15.39
2018-10-16T04:33:52.682Z,15.32
2018-10-16T04:34:52.747Z,15.33
2018-10-16T04:35:52.742Z,15.35
2018-10-16T04:36:52.722Z,15.37
2018-10-16T04:37:52.717Z,15.32
2018-10-16T04:38:52.792Z,15.36
2018-10-16T04:39:52.732Z,15.33
2018-10-16T04:40:52.745Z,15.26
2018-10-16T04:41:52.764Z,15.36
2018-10-16T04:42:52.770Z,15.39
2018-10-16T04:43:52.798Z,15.41
2018-10-16T04:44:52.779Z,15.33
2018-10-16T04:45:52.811Z,15.45
2018-10-16T04:46:52.775Z,15.30
2018-10-16T04:47:52.792Z,15.35
2018-10-16T04:48:52.847Z,15.19
2018-10-16T04:49:53.172Z,15.35
2018-10-16T04:50:52.804Z,15.18
2018-10-16T04:51:52.872Z,15.33
2018-10-16T04:52:52.818Z,15.27
2018-10-16T04:53:52.831Z,15.27
2018-10-16T04:54:52.836Z,15.18
2018-10-16T04:55:52.894Z,15.33
2018-10-16T04:56:52.868Z,15.32
2018-10-16T04:57:53.005Z,15.23
2018-10-16T04:58:52.901Z,15.25
2018-10-16T04:59:52.906Z,15.33
2018-10-16T05:00:52.883Z,15.25
2018-10-16T05:01:52.903Z,15.25
2018-10-16T05:02:52.930Z,15.36
2018-10-16T05:03:52.954Z,15.26
2018-10-16T05:04:52.914Z,15.25
2018-10-16T05:05:52.921Z,15.26
2018-10-16T05:06:52.980Z,15.29
2018-10-16T05:07:52.957Z,15.32
2018-10-16T05:08:52.964Z,15.32
2018-10-16T05:09:53.015Z,15.18
2018-10-16T05:10:52.966Z,15.22
2018-10-16T05:11:52.970Z,15.15
2018-10-16T05:12:53.017Z,15.12
2018-10-16T05:13:53.030Z,15.05
2018-10-16T05:14:53.005Z,15.10
2018-10-16T05:15:53.055Z,14.99
2018-10-16T05:16:53.110Z,15.02
2018-10-16T05:17:53.037Z,15.10
2018-10-16T05:18:53.097Z,15.11
2018-10-16T05:19:53.043Z,15.07
2018-10-16T05:20:53.041Z,15.10
2018-10-16T05:21:53.071Z,15.12
2018-10-16T05:22:53.057Z,15.11
2018-10-16T05:23:53.113Z,15.07
2018-10-16T05:24:53.077Z,15.10
2018-10-16T05:25:53.131Z,15.12
2018-10-16T05:26:53.091Z,15.19
2018-10-16T05:27:53.104Z,15.17
2018-10-16T05:28:53.104Z,15.25
2018-10-16T05:29:53.109Z,15.23
2018-10-16T05:30:53.234Z,15.23
2018-10-16T05:31:53.235Z,15.25
2018-10-16T05:32:53.127Z,15.22
2018-10-16T05:33:53.131Z,15.22
2018-10-16T05:34:53.187Z,15.19
2018-10-16T05:35:53.149Z,15.22
2018-10-16T05:36:53.199Z,15.23
2018-10-16T05:37:53.246Z,15.26
2018-10-16T05:38:53.177Z,15.25
2018-10-16T05:39:53.207Z,15.27
2018-10-16T05:40:53.187Z,15.25
2018-10-16T05:41:53.252Z,15.23
2018-10-16T05:42:53.218Z,15.23
2018-10-16T05:43:53.269Z,15.22
2018-10-16T05:44:53.215Z,15.19
2018-10-16T05:45:53.236Z,15.32
2018-10-16T05:46:53.240Z,15.18
2018-10-16T05:47:53.277Z,15.23
2018-10-16T05:48:53.267Z,15.23
2018-10-16T05:49:53.275Z,15.23
2018-10-16T05:50:53.263Z,15.26
2018-10-16T05:51:53.300Z,15.19
2018-10-16T05:52:53.440Z,15.23
2018-10-16T05:53:53.316Z,15.19
2018-10-16T05:54:53.320Z,15.23
2018-10-16T05:55:53.311Z,15.23
2018-10-16T05:56:53.319Z,15.26
2018-10-16T05:57:53.394Z,15.23
2018-10-16T05:58:53.319Z,15.25
2018-10-16T05:59:53.365Z,15.19
2018-10-16T06:00:53.379Z,15.25
2018-10-16T06:01:53.347Z,15.22
2018-10-16T06:02:53.357Z,15.19
2018-10-16T06:03:53.401Z,15.23
2018-10-16T06:04:53.370Z,15.26
2018-10-16T06:05:53.381Z,15.25
2018-10-16T06:06:53.405Z,15.25
2018-10-16T06:07:53.415Z,15.23
2018-10-16T06:08:53.431Z,15.18
2018-10-16T06:09:53.439Z,15.22
2018-10-16T06:10:53.570Z,15.25
2018-10-16T06:11:53.443Z,15.18
2018-10-16T06:12:53.450Z,15.19
2018-10-16T06:13:53.454Z,15.19
2018-10-16T06:14:53.473Z,15.18
2018-10-16T06:15:53.513Z,15.32
2018-10-16T06:16:53.471Z,15.27
2018-10-16T06:17:53.472Z,15.23
2018-10-16T06:18:53.483Z,15.33
2018-10-16T06:19:53.514Z,15.30
2018-10-16T06:20:53.503Z,15.25
2018-10-16T06:21:53.525Z,15.27
2018-10-16T06:22:53.526Z,15.29
2018-10-16T06:23:53.519Z,15.22
2018-10-16T06:24:53.549Z,15.27
2018-10-16T06:25:53.558Z,15.25
2018-10-16T06:26:53.539Z,15.26
2018-10-16T06:27:53.691Z,15.22
2018-10-16T06:28:53.565Z,15.23
2018-10-16T06:29:53.569Z,15.26
2018-10-16T06:30:53.592Z,15.30
2018-10-16T06:31:53.585Z,15.26
2018-10-16T06:32:53.583Z,15.18
2018-10-16T06:33:53.601Z,15.26
2018-10-16T06:34:53.828Z,15.25
2018-10-16T06:35:53.623Z,15.25
2018-10-16T06:36:53.668Z,15.26
2018-10-16T06:37:53.659Z,15.27
2018-10-16T06:38:53.634Z,15.30
2018-10-16T06:39:53.665Z,15.33
2018-10-16T06:40:53.841Z,15.26
2018-10-16T06:41:53.686Z,15.36
2018-10-16T06:42:53.661Z,15.33
2018-10-16T06:43:53.780Z,15.39
2018-10-16T06:44:53.682Z,15.41
2018-10-16T06:45:53.692Z,15.43
2018-10-16T06:46:53.743Z,15.47
2018-10-16T06:47:53.803Z,15.45
2018-10-16T06:48:53.888Z,15.45
2018-10-16T06:49:53.719Z,15.50
2018-10-16T06:50:53.791Z,15.47
2018-10-16T06:51:53.813Z,15.50
2018-10-16T06:52:53.781Z,15.55
2018-10-16T06:53:53.774Z,15.57
2018-10-16T06:54:53.783Z,15.50
2018-10-16T06:55:53.775Z,15.67
2018-10-16T06:56:53.858Z,15.59
2018-10-16T06:57:53.810Z,15.63
2018-10-16T06:58:53.814Z,15.60
2018-10-16T06:59:53.808Z,15.70
2018-10-16T07:00:53.830Z,15.67
2018-10-16T07:01:53.832Z,15.73
2018-10-16T07:02:53.823Z,15.67
2018-10-16T07:03:53.851Z,15.76
2018-10-16T07:04:53.907Z,15.69
2018-10-16T07:05:53.855Z,15.78
2018-10-16T07:06:53.943Z,15.83
2018-10-16T07:07:53.875Z,15.75
2018-10-16T07:08:53.912Z,15.76
2018-10-16T07:09:53.887Z,15.73
2018-10-16T07:10:53.929Z,15.87
2018-10-16T07:11:53.909Z,15.72
2018-10-16T07:12:53.922Z,15.83
2018-10-16T07:13:53.946Z,15.76
2018-10-16T07:14:54.030Z,15.85
2018-10-16T07:15:53.932Z,15.81
2018-10-16T07:16:53.937Z,15.85
2018-10-16T07:17:53.942Z,15.94
2018-10-16T07:18:53.948Z,15.85
2018-10-16T07:19:53.993Z,15.81
2018-10-16T07:20:57.743Z,15.80
2018-10-16T07:22:00.215Z,15.85
2018-10-16T07:22:53.998Z,15.91
2018-10-16T07:23:54.080Z,15.92
2018-10-16T07:24:54.026Z,15.87
2018-10-16T07:25:54.021Z,15.90
2018-10-16T07:26:54.106Z,15.92
2018-10-16T07:27:54.024Z,15.92
2018-10-16T07:28:54.024Z,15.98
2018-10-16T07:29:54.095Z,15.94
2018-10-16T07:30:54.048Z,16.00
2018-10-16T07:31:54.087Z,16.09
2018-10-16T07:32:54.128Z,16.00
2018-10-16T07:33:54.137Z,16.06
2018-10-16T07:34:54.083Z,16.09
2018-10-16T07:35:54.104Z,16.13
2018-10-16T07:36:54.113Z,16.09
2018-10-16T07:37:54.165Z,16.16
2018-10-16T07:38:54.207Z,16.16
2018-10-16T07:39:54.126Z,16.21
2018-10-16T07:40:54.146Z,16.22
2018-10-16T07:41:54.167Z,16.24
2018-10-16T07:42:54.174Z,16.24
2018-10-16T07:43:54.169Z,16.25
2018-10-16T07:44:54.359Z,16.28
2018-10-16T07:45:54.271Z,16.25
2018-10-16T07:46:54.188Z,16.34
2018-10-16T07:47:54.244Z,16.25
2018-10-16T07:48:54.891Z,16.25
2018-10-16T07:49:54.244Z,16.26
2018-10-16T07:50:54.815Z,16.37
2018-10-16T07:51:54.382Z,16.25
2018-10-16T07:52:54.483Z,16.17
2018-10-16T07:53:56.897Z,16.22
2018-10-16T07:54:54.418Z,16.25
2018-10-16T07:55:54.296Z,16.28
2018-10-16T07:56:54.842Z,16.29
2018-10-16T07:57:54.310Z,16.25
2018-10-16T07:58:54.327Z,16.34
2018-10-16T07:59:54.321Z,16.29
2018-10-16T08:00:54.309Z,16.36
2018-10-16T08:01:54.316Z,16.29
2018-10-16T08:02:54.409Z,16.24
2018-10-16T08:03:54.364Z,16.32
2018-10-16T08:04:54.358Z,16.37
2018-10-16T08:05:54.340Z,16.36
2018-10-16T08:06:54.366Z,16.25
2018-10-16T08:07:54.374Z,16.39
2018-10-16T08:08:54.388Z,16.40
2018-10-16T08:09:54.407Z,16.41
2018-10-16T08:10:55.351Z,16.41
2018-10-16T08:11:54.400Z,16.43
2018-10-16T08:12:54.492Z,16.50
2018-10-16T08:13:54.411Z,16.44
2018-10-16T08:15:10.283Z,16.51
2018-10-16T08:15:54.428Z,16.55
2018-10-16T08:16:54.475Z,16.49
2018-10-16T08:17:54.454Z,16.49
2018-10-16T08:18:54.472Z,16.59
2018-10-16T08:19:55.426Z,16.57
2018-10-16T08:20:54.587Z,16.61
2018-10-16T08:21:54.495Z,16.55
2018-10-16T08:22:54.513Z,16.58
2018-10-16T08:23:54.515Z,16.65
2018-10-16T08:24:54.524Z,16.64
2018-10-16T08:25:54.613Z,16.55
2018-10-16T08:26:54.585Z,16.58
2018-10-16T08:27:54.557Z,16.55
2018-10-16T08:28:55.264Z,16.58
2018-10-16T08:29:54.860Z,16.61
2018-10-16T08:30:54.656Z,16.68
2018-10-16T08:31:54.594Z,16.69
2018-10-16T08:32:54.578Z,16.73
2018-10-16T08:33:54.715Z,16.72
2018-10-16T08:34:54.703Z,16.79
2018-10-16T08:35:54.699Z,16.73
2018-10-16T08:36:54.881Z,16.77
2018-10-16T08:37:54.626Z,16.62
2018-10-16T08:38:55.295Z,16.55
2018-10-16T08:39:54.693Z,16.68
2018-10-16T08:40:54.672Z,16.69
2018-10-16T08:41:54.911Z,16.83
2018-10-16T08:42:54.648Z,16.61
2018-10-16T08:43:54.697Z,16.82
2018-10-16T08:44:56.714Z,16.79
2018-10-16T08:45:54.817Z,16.84
2018-10-16T08:46:54.696Z,16.82
2018-10-16T08:47:54.717Z,16.82
2018-10-16T08:48:55.449Z,16.91
2018-10-16T08:49:54.733Z,16.97
2018-10-16T08:50:54.745Z,16.92
2018-10-16T08:51:54.908Z,17.05
2018-10-16T08:52:55.343Z,16.99
2018-10-16T08:53:54.772Z,17.07
2018-10-16T08:54:55.070Z,16.99
2018-10-16T08:55:54.935Z,17.05
2018-10-16T08:56:54.957Z,17.13
2018-10-16T08:57:57.868Z,17.12
2018-10-16T08:58:57.219Z,17.12
2018-10-16T08:59:54.868Z,17.16
2018-10-16T09:00:54.936Z,17.07
2018-10-16T09:01:55.908Z,17.13
2018-10-16T09:02:55.375Z,17.19
2018-10-16T09:03:57.210Z,17.28
2018-10-16T09:04:55.768Z,17.12
2018-10-16T09:05:54.994Z,17.27
2018-10-16T09:06:57.712Z,17.32
2018-10-16T09:07:55.827Z,17.32
2018-10-16T09:08:57.230Z,17.34
2018-10-16T09:09:57.214Z,17.35
2018-10-16T09:10:57.212Z,17.46
2018-10-16T09:11:55.513Z,17.38
2018-10-16T09:12:56.738Z,17.49
2018-10-16T09:13:55.820Z,17.41
2018-10-16T09:14:57.829Z,17.46
2018-10-16T09:15:56.171Z,17.44
2018-10-16T09:16:55.483Z,17.38
2018-10-16T09:17:55.756Z,17.52
2018-10-16T09:18:55.408Z,17.56
2018-10-16T09:19:55.491Z,17.50
2018-10-16T09:20:55.394Z,17.60
2018-10-16T09:21:55.099Z,17.57
2018-10-16T09:22:55.032Z,17.57
2018-10-16T09:23:55.924Z,17.65
2018-10-16T09:24:55.071Z,17.56
2018-10-16T09:25:55.212Z,17.52
2018-10-16T09:26:55.227Z,17.54
2018-10-16T09:27:55.227Z,17.72
2018-10-16T09:28:55.119Z,17.59
2018-10-16T09:29:55.073Z,17.71
2018-10-16T09:30:55.185Z,17.69
2018-10-16T09:31:55.085Z,17.72
2018-10-16T09:32:55.152Z,17.63
2018-10-16T09:33:55.451Z,17.71
2018-10-16T09:34:55.815Z,17.68
2018-10-16T09:35:56.173Z,17.71
2018-10-16T09:36:55.220Z,17.78
2018-10-16T09:37:55.170Z,17.80
2018-10-16T09:38:55.353Z,17.86
2018-10-16T09:39:55.273Z,17.76
2018-10-16T09:40:55.164Z,17.78
2018-10-16T09:41:55.208Z,17.80
2018-10-16T09:42:55.241Z,17.79
2018-10-16T09:43:55.366Z,17.79
2018-10-16T09:44:55.208Z,17.87
2018-10-16T09:45:55.273Z,17.82
2018-10-16T09:46:55.869Z,17.88
2018-10-16T09:47:55.252Z,17.87
2018-10-16T09:48:55.253Z,17.87
2018-10-16T09:49:55.406Z,17.86
2018-10-16T09:50:55.311Z,17.78
2018-10-16T09:51:56.217Z,17.84
2018-10-16T09:52:55.423Z,17.82
2018-10-16T09:53:55.311Z,17.86
2018-10-16T09:54:55.378Z,17.87
2018-10-16T09:55:55.388Z,17.97
2018-10-16T09:56:55.343Z,17.90
2018-10-16T09:57:55.425Z,17.97
2018-10-16T09:58:55.354Z,18.03
2018-10-16T09:59:55.473Z,17.93
2018-10-16T10:00:56.267Z,17.91
2018-10-16T10:01:55.400Z,18.02
2018-10-16T10:02:55.398Z,17.98
2018-10-16T10:03:55.391Z,18.05
2018-10-16T10:04:56.318Z,17.98
2018-10-16T10:05:55.553Z,18.00
2018-10-16T10:06:55.770Z,18.00
2018-10-16T10:07:55.772Z,17.98
2018-10-16T10:08:55.592Z,18.03
2018-10-16T10:09:55.939Z,18.03
2018-10-16T10:10:56.894Z,18.08
2018-10-16T10:11:56.320Z,18.08
2018-10-16T10:12:56.028Z,18.18
2018-10-16T10:13:55.696Z,18.15
2018-10-16T10:14:56.320Z,18.19
2018-10-16T10:15:55.819Z,18.24
2018-10-16T10:16:55.745Z,18.23
2018-10-16T10:17:55.699Z,18.28
2018-10-16T10:18:57.219Z,18.23
2018-10-16T10:19:58.734Z,18.19
2018-10-16T10:20:56.644Z,18.26
2018-10-16T10:21:55.978Z,18.27
2018-10-16T10:22:55.585Z,18.30
2018-10-16T10:23:55.593Z,18.33
2018-10-16T10:24:55.585Z,18.31
2018-10-16T10:25:57.771Z,18.36
2018-10-16T10:26:55.771Z,18.33
2018-10-16T10:27:55.661Z,18.41
2018-10-16T10:28:56.747Z,18.43
2018-10-16T10:29:55.654Z,18.33
2018-10-16T10:30:55.736Z,18.41
2018-10-16T10:31:56.743Z,18.39
2018-10-16T10:32:55.969Z,18.43
2018-10-16T10:33:56.215Z,18.46
2018-10-16T10:34:56.775Z,18.46
2018-10-16T10:35:55.688Z,18.45
2018-10-16T10:36:55.883Z,18.49
2018-10-16T10:37:55.985Z,18.52
2018-10-16T10:38:58.733Z,18.55
2018-10-16T10:39:55.886Z,18.53
2018-10-16T10:40:58.221Z,18.49
2018-10-16T10:41:55.789Z,18.48
2018-10-16T10:42:55.768Z,18.46
2018-10-16T10:43:55.753Z,18.48
2018-10-16T10:44:55.805Z,18.39
2018-10-16T10:45:55.793Z,18.46
2018-10-16T10:46:55.780Z,18.52
2018-10-16T10:47:55.792Z,18.46
2018-10-16T10:48:55.825Z,18.57
2018-10-16T10:49:55.940Z,18.55
2018-10-16T10:50:56.059Z,18.48
2018-10-16T10:51:55.829Z,18.61
2018-10-16T10:52:55.840Z,18.64
2018-10-16T10:53:55.844Z,18.68
2018-10-16T10:54:55.865Z,18.70
2018-10-16T10:55:55.898Z,18.73
2018-10-16T10:56:55.982Z,18.70
2018-10-16T10:57:55.886Z,18.71
2018-10-16T10:58:55.908Z,18.71
2018-10-16T10:59:55.926Z,18.74
2018-10-16T11:00:55.935Z,18.76
2018-10-16T11:01:55.945Z,18.74
2018-10-16T11:02:55.996Z,18.74
2018-10-16T11:03:55.972Z,18.76
2018-10-16T11:04:55.965Z,18.74
2018-10-16T11:05:56.002Z,18.76
2018-10-16T11:06:56.000Z,18.85
2018-10-16T11:07:55.987Z,18.81
2018-10-16T11:08:56.023Z,18.86
2018-10-16T11:09:56.013Z,18.88
2018-10-16T11:10:56.117Z,18.83
2018-10-16T11:11:56.034Z,18.94
2018-10-16T11:12:56.096Z,18.89
2018-10-16T11:13:56.049Z,18.94
2018-10-16T11:14:56.100Z,19.05
2018-10-16T11:15:56.060Z,19.01
2018-10-16T11:16:56.118Z,18.96
2018-10-16T11:17:56.106Z,19.01
2018-10-16T11:18:56.093Z,19.04
2018-10-16T11:19:56.115Z,19.01
2018-10-16T11:20:56.198Z,19.11
2018-10-16T11:21:56.131Z,18.98
2018-10-16T11:22:56.133Z,19.04
2018-10-16T11:23:56.148Z,19.16
2018-10-16T11:24:56.201Z,19.17
2018-10-16T11:25:56.202Z,19.16
2018-10-16T11:26:56.274Z,19.26
2018-10-16T11:27:56.195Z,19.26
2018-10-16T11:28:56.219Z,19.22
2018-10-16T11:29:56.211Z,19.17
2018-10-16T11:30:56.243Z,19.20
2018-10-16T11:31:56.223Z,19.16
2018-10-16T11:32:56.266Z,19.23
2018-10-16T11:33:56.239Z,19.35
2018-10-16T11:34:56.253Z,19.27
2018-10-16T11:35:56.310Z,19.34
2018-10-16T11:36:56.317Z,19.34
2018-10-16T11:37:56.274Z,19.37
2018-10-16T11:38:56.319Z,19.39
2018-10-16T11:39:56.329Z,19.52
2018-10-16T11:40:56.328Z,19.52
2018-10-16T11:41:56.345Z,19.53
2018-10-16T11:42:56.347Z,19.56
2018-10-16T11:43:56.351Z,19.59
2018-10-16T11:44:56.393Z,19.66
2018-10-16T11:45:56.361Z,19.71
2018-10-16T11:46:56.416Z,19.75
2018-10-16T11:47:56.426Z,19.79
2018-10-16T11:48:56.416Z,19.81
2018-10-16T11:49:56.431Z,19.92
2018-10-16T11:50:56.446Z,19.99
2018-10-16T11:51:56.462Z,20.04
2018-10-16T11:52:56.463Z,20.11
2018-10-16T11:53:56.532Z,20.07
2018-10-16T11:54:56.456Z,20.14
2018-10-16T11:55:56.530Z,20.18
2018-10-16T11:56:56.488Z,20.22
2018-10-16T11:57:56.607Z,20.22
2018-10-16T11:58:56.509Z,20.33
2018-10-16T11:59:56.512Z,20.34
2018-10-16T12:00:56.533Z,20.36
2018-10-16T12:01:56.659Z,20.46
2018-10-16T12:02:56.580Z,20.42
2018-10-16T12:03:56.570Z,20.48
2018-10-16T12:04:56.880Z,20.49
2018-10-16T12:05:56.603Z,20.53
2018-10-16T12:06:56.695Z,20.64
2018-10-16T12:07:56.638Z,20.63
2018-10-16T12:08:56.671Z,20.63
2018-10-16T12:09:56.639Z,20.66
2018-10-16T12:10:56.637Z,20.59
2018-10-16T12:11:56.644Z,20.64
2018-10-16T12:12:56.657Z,20.66
2018-10-16T12:13:56.673Z,20.68
2018-10-16T12:14:56.714Z,20.78
2018-10-16T12:15:56.733Z,20.75
2018-10-16T12:16:56.703Z,20.78
2018-10-16T12:17:56.728Z,20.71
2018-10-16T12:18:56.798Z,20.83
2018-10-16T12:19:56.780Z,20.80
2018-10-16T12:20:56.834Z,20.85
2018-10-16T12:21:56.804Z,20.77
2018-10-16T12:22:56.772Z,20.74
2018-10-16T12:23:56.820Z,20.78
2018-10-16T12:24:56.797Z,20.77
2018-10-16T12:25:56.840Z,20.90
2018-10-16T12:26:56.867Z,20.95
2018-10-16T12:27:56.842Z,20.89
2018-10-16T12:28:56.858Z,20.90
2018-10-16T12:29:56.847Z,20.92
2018-10-16T12:30:56.945Z,20.80
2018-10-16T12:31:56.873Z,20.90
2018-10-16T12:32:56.879Z,20.96
2018-10-16T12:33:56.895Z,20.92
2018-10-16T12:34:56.899Z,21.04
2018-10-16T12:35:56.932Z,21.04
2018-10-16T12:36:56.921Z,21.03
2018-10-16T12:37:56.922Z,21.03
2018-10-16T12:38:56.964Z,21.03
2018-10-16T12:39:56.965Z,21.04
2018-10-16T12:40:57.073Z,21.11
2018-10-16T12:41:57.061Z,21.04
2018-10-16T12:42:57.249Z,21.07
2018-10-16T12:43:57.120Z,21.01
2018-10-16T12:44:57.059Z,21.07
2018-10-16T12:45:57.040Z,21.10
2018-10-16T12:46:57.089Z,21.19
2018-10-16T12:47:57.103Z,21.11
2018-10-16T12:48:57.089Z,21.07
2018-10-16T12:49:57.108Z,21.13
2018-10-16T12:50:57.076Z,21.08
2018-10-16T12:51:57.138Z,21.20
2018-10-16T12:52:57.146Z,21.19